RYR48BF GMTT-EDSB
Flight info
| Callsign | RYR48BF |
|---|---|
| Flight time | 2h 38m |
| Altitude | 36000 |
| Route | NOLRO DCT ADKIM Z53 VJF L27 MAR DCT ALCOL N871 TOPTU DCT TOU DCT GAI DCT MEN DCT NINUN DCT LATAM DCT ETREK DCT LTP DCT SOPLO DCT OMASI DCT KINNI DCT LAMUR DCT KORED DCT BERSU Z141 KBA |
| Aircraft | B738/M-SDE3FGILRWY/SB1 |
Departure
| Time | 2026-04-26 17:38 |
|---|---|
| Airport | Tangier Ibn Battuta Airport (GMTT) |
Arrival
| Time | 2026-04-26 20:16 |
|---|---|
| Airport | Karlsruhe Baden-Baden Airport (EDSB) |
| Time | Latitude | Longitude | Altitude | Speed | Heading |
|---|---|---|---|---|---|
| 2026-04-26 17:04 | 35.72523 | -5.91249 | 59 ft | 0 kts | 355° |
| 2026-04-26 17:27 | 35.72513 | -5.91248 | 59 ft | 4 kts | 353° |
| 2026-04-26 17:27 | 35.72487 | -5.91242 | 56 ft | 4 kts | 341° |
| 2026-04-26 17:27 | 35.72463 | -5.91228 | 54 ft | 4 kts | 320° |
| 2026-04-26 17:28 | 35.72448 | -5.91204 | 54 ft | 4 kts | 277° |
| 2026-04-26 17:28 | 35.72447 | -5.91195 | 57 ft | 1 kts | 265° |
| 2026-04-26 17:31 | 35.72446 | -5.91214 | 55 ft | 5 kts | 265° |
| 2026-04-26 17:31 | 35.72441 | -5.91286 | 59 ft | 12 kts | 266° |
| 2026-04-26 17:31 | 35.72434 | -5.91413 | 59 ft | 18 kts | 266° |
| 2026-04-26 17:32 | 35.72427 | -5.91557 | 53 ft | 15 kts | 273° |
| 2026-04-26 17:32 | 35.72475 | -5.91664 | 59 ft | 14 kts | 324° |
| 2026-04-26 17:32 | 35.72569 | -5.91692 | 59 ft | 14 kts | 356° |
| 2026-04-26 17:32 | 35.72663 | -5.91700 | 59 ft | 13 kts | 356° |
| 2026-04-26 17:33 | 35.72753 | -5.91709 | 59 ft | 13 kts | 354° |
| 2026-04-26 17:33 | 35.72841 | -5.91717 | 59 ft | 12 kts | 357° |
| 2026-04-26 17:33 | 35.72925 | -5.91733 | 55 ft | 12 kts | 330° |
| 2026-04-26 17:34 | 35.72967 | -5.91942 | 58 ft | 17 kts | 277° |
| 2026-04-26 17:34 | 35.72984 | -5.92122 | 58 ft | 25 kts | 276° |
| 2026-04-26 17:34 | 35.73006 | -5.92364 | 56 ft | 31 kts | 276° |
| 2026-04-26 17:34 | 35.73031 | -5.92623 | 53 ft | 30 kts | 276° |
| 2026-04-26 17:35 | 35.73053 | -5.92868 | 59 ft | 28 kts | 276° |
| 2026-04-26 17:35 | 35.73075 | -5.93099 | 57 ft | 26 kts | 276° |
| 2026-04-26 17:35 | 35.73095 | -5.93316 | 59 ft | 25 kts | 276° |
| 2026-04-26 17:35 | 35.73114 | -5.93518 | 53 ft | 23 kts | 276° |
| 2026-04-26 17:36 | 35.73132 | -5.93711 | 53 ft | 22 kts | 276° |
| 2026-04-26 17:36 | 35.73150 | -5.93898 | 59 ft | 22 kts | 276° |
| 2026-04-26 17:36 | 35.73184 | -5.94026 | 58 ft | 14 kts | 313° |
| 2026-04-26 17:36 | 35.73274 | -5.94048 | 58 ft | 14 kts | 19° |
| 2026-04-26 17:37 | 35.73335 | -5.93991 | 57 ft | 10 kts | 57° |
| 2026-04-26 17:37 | 35.73332 | -5.93909 | 58 ft | 10 kts | 96° |
| 2026-04-26 17:37 | 35.73309 | -5.93663 | 59 ft | 62 kts | 96° |
| 2026-04-26 17:38 | 35.73107 | -5.91711 | 458 ft | 141 kts | 95° |
| 2026-04-26 17:38 | 35.72956 | -5.90519 | 1238 ft | 137 kts | 97° |
| 2026-04-26 17:38 | 35.72835 | -5.89377 | 1968 ft | 142 kts | 95° |
| 2026-04-26 17:38 | 35.72733 | -5.88069 | 2302 ft | 165 kts | 95° |
| 2026-04-26 17:39 | 35.72605 | -5.86603 | 2799 ft | 179 kts | 96° |
| 2026-04-26 17:39 | 35.72477 | -5.84940 | 2943 ft | 211 kts | 95° |
| 2026-04-26 17:39 | 35.72352 | -5.83114 | 3651 ft | 215 kts | 95° |
| 2026-04-26 17:39 | 35.72181 | -5.81270 | 4349 ft | 221 kts | 99° |
| 2026-04-26 17:40 | 35.71882 | -5.79323 | 4714 ft | 242 kts | 110° |
| 2026-04-26 17:40 | 35.71649 | -5.78682 | 4913 ft | 243 kts | 122° |
| 2026-04-26 17:40 | 35.69469 | -5.76794 | 6489 ft | 234 kts | 162° |
| 2026-04-26 17:40 | 35.67799 | -5.76696 | 6984 ft | 249 kts | 191° |
| 2026-04-26 17:41 | 35.66218 | -5.77599 | 7638 ft | 255 kts | 218° |
| 2026-04-26 17:41 | 35.65113 | -5.79312 | 8277 ft | 264 kts | 247° |
| 2026-04-26 17:41 | 35.64895 | -5.81552 | 8923 ft | 266 kts | 283° |
| 2026-04-26 17:41 | 35.65625 | -5.83590 | 9839 ft | 260 kts | 299° |
| 2026-04-26 17:42 | 35.66520 | -5.85542 | 10456 ft | 264 kts | 299° |
| 2026-04-26 17:42 | 35.67438 | -5.87515 | 11073 ft | 268 kts | 299° |
| 2026-04-26 17:42 | 35.68379 | -5.89522 | 11701 ft | 271 kts | 299° |
| 2026-04-26 17:42 | 35.69319 | -5.91527 | 12449 ft | 271 kts | 299° |
| 2026-04-26 17:43 | 35.70273 | -5.93566 | 13044 ft | 278 kts | 298° |
| 2026-04-26 17:43 | 35.71239 | -5.95632 | 13755 ft | 280 kts | 298° |
| 2026-04-26 17:43 | 35.72209 | -5.97707 | 14439 ft | 279 kts | 298° |
| 2026-04-26 17:43 | 35.73179 | -5.99788 | 15098 ft | 281 kts | 298° |
| 2026-04-26 17:44 | 35.74215 | -6.01845 | 15711 ft | 286 kts | 310° |
| 2026-04-26 17:44 | 35.75806 | -6.03279 | 16368 ft | 287 kts | 339° |
| 2026-04-26 17:44 | 35.77806 | -6.03717 | 16640 ft | 304 kts | 4° |
| 2026-04-26 17:44 | 35.79975 | -6.03414 | 16828 ft | 324 kts | 7° |
| 2026-04-26 17:45 | 35.82284 | -6.03035 | 16987 ft | 345 kts | 7° |
| 2026-04-26 17:45 | 35.84733 | -6.02640 | 17146 ft | 365 kts | 7° |
| 2026-04-26 17:45 | 35.87310 | -6.02283 | 17460 ft | 378 kts | 6° |
| 2026-04-26 17:45 | 35.89942 | -6.01947 | 18070 ft | 382 kts | 6° |
| 2026-04-26 17:46 | 35.92591 | -6.01615 | 18720 ft | 384 kts | 6° |
| 2026-04-26 17:46 | 35.95259 | -6.01263 | 19310 ft | 386 kts | 8° |
| 2026-04-26 17:46 | 35.97869 | -6.00428 | 19823 ft | 391 kts | 22° |
| 2026-04-26 17:46 | 36.00265 | -5.98825 | 20360 ft | 395 kts | 35° |
| 2026-04-26 17:47 | 36.02442 | -5.96742 | 20929 ft | 397 kts | 38° |
| 2026-04-26 17:47 | 36.03141 | -5.96048 | 21104 ft | 398 kts | 38° |
| 2026-04-26 17:47 | 36.06751 | -5.92442 | 21975 ft | 404 kts | 38° |
| 2026-04-26 17:47 | 36.08949 | -5.90251 | 22491 ft | 407 kts | 38° |
| 2026-04-26 17:48 | 36.11199 | -5.88018 | 23028 ft | 411 kts | 38° |
| 2026-04-26 17:48 | 36.13439 | -5.85805 | 23500 ft | 415 kts | 38° |
| 2026-04-26 17:48 | 36.15706 | -5.83572 | 23932 ft | 417 kts | 38° |
| 2026-04-26 17:48 | 36.17983 | -5.81332 | 24379 ft | 419 kts | 37° |
| 2026-04-26 17:49 | 36.20276 | -5.79076 | 24821 ft | 421 kts | 37° |
| 2026-04-26 17:49 | 36.22574 | -5.76816 | 25253 ft | 424 kts | 36° |
| 2026-04-26 17:49 | 36.24863 | -5.74565 | 25662 ft | 426 kts | 36° |
| 2026-04-26 17:49 | 36.27218 | -5.72245 | 26059 ft | 429 kts | 36° |
| 2026-04-26 17:50 | 36.29522 | -5.69971 | 26514 ft | 428 kts | 36° |
| 2026-04-26 17:50 | 36.31843 | -5.67678 | 27084 ft | 426 kts | 37° |
| 2026-04-26 17:50 | 36.34176 | -5.65375 | 27371 ft | 431 kts | 37° |
| 2026-04-26 17:50 | 36.36530 | -5.63048 | 27716 ft | 434 kts | 35° |
| 2026-04-26 17:51 | 36.38896 | -5.60707 | 28121 ft | 435 kts | 35° |
| 2026-04-26 17:51 | 36.41266 | -5.58360 | 28556 ft | 436 kts | 37° |
| 2026-04-26 17:51 | 36.43646 | -5.56000 | 28838 ft | 440 kts | 36° |
| 2026-04-26 17:51 | 36.46047 | -5.53620 | 29171 ft | 442 kts | 36° |
| 2026-04-26 17:52 | 36.48454 | -5.51232 | 29532 ft | 444 kts | 36° |
| 2026-04-26 17:52 | 36.50871 | -5.48832 | 29893 ft | 446 kts | 35° |
| 2026-04-26 17:52 | 36.53295 | -5.46422 | 30237 ft | 447 kts | 37° |
| 2026-04-26 17:52 | 36.55722 | -5.44007 | 30573 ft | 447 kts | 35° |
| 2026-04-26 17:53 | 36.58144 | -5.41593 | 30937 ft | 446 kts | 36° |
| 2026-04-26 17:53 | 36.60566 | -5.39177 | 31296 ft | 446 kts | 36° |
| 2026-04-26 17:53 | 36.62981 | -5.36767 | 31660 ft | 445 kts | 36° |
| 2026-04-26 17:54 | 36.66984 | -5.32771 | 32324 ft | 443 kts | 36° |
| 2026-04-26 17:54 | 36.69382 | -5.30372 | 32709 ft | 441 kts | 36° |
| 2026-04-26 17:54 | 36.71765 | -5.27985 | 33080 ft | 440 kts | 35° |
| 2026-04-26 17:54 | 36.74155 | -5.25593 | 33396 ft | 440 kts | 36° |
| 2026-04-26 17:55 | 36.77310 | -5.22434 | 33851 ft | 439 kts | 36° |
| 2026-04-26 17:55 | 36.79686 | -5.20050 | 34169 ft | 438 kts | 36° |
| 2026-04-26 17:55 | 36.81293 | -5.18437 | 34346 ft | 438 kts | 36° |
| 2026-04-26 17:55 | 36.83671 | -5.16049 | 34588 ft | 439 kts | 36° |
| 2026-04-26 17:56 | 36.86049 | -5.13658 | 34826 ft | 440 kts | 36° |
| 2026-04-26 17:56 | 36.90803 | -5.08872 | 35388 ft | 438 kts | 36° |
| 2026-04-26 17:57 | 36.95551 | -5.04082 | 35835 ft | 439 kts | 36° |
| 2026-04-26 17:57 | 36.97925 | -5.01685 | 36029 ft | 439 kts | 36° |
| 2026-04-26 17:57 | 37.00313 | -4.99271 | 36029 ft | 442 kts | 36° |
| 2026-04-26 17:58 | 37.10495 | -4.91253 | 36054 ft | 429 kts | 20° |
| 2026-04-26 17:59 | 37.18762 | -4.87064 | 36047 ft | 426 kts | 20° |
| 2026-04-26 17:59 | 37.23821 | -4.84454 | 36023 ft | 424 kts | 20° |
| 2026-04-26 18:00 | 37.29284 | -4.81605 | 36049 ft | 427 kts | 20° |
| 2026-04-26 18:00 | 37.34818 | -4.78707 | 36038 ft | 434 kts | 20° |
| 2026-04-26 18:01 | 37.40405 | -4.75773 | 36028 ft | 436 kts | 20° |
| 2026-04-26 18:01 | 37.46015 | -4.72824 | 36021 ft | 437 kts | 20° |
| 2026-04-26 18:02 | 37.50674 | -4.70371 | 36020 ft | 437 kts | 20° |
| 2026-04-26 18:02 | 37.57223 | -4.66918 | 36018 ft | 436 kts | 20° |
| 2026-04-26 18:03 | 37.62804 | -4.63971 | 36015 ft | 434 kts | 21° |
| 2026-04-26 18:03 | 37.68365 | -4.61029 | 36008 ft | 432 kts | 20° |
| 2026-04-26 18:04 | 37.73902 | -4.58095 | 36009 ft | 431 kts | 21° |
| 2026-04-26 18:05 | 37.82139 | -4.53722 | 36011 ft | 429 kts | 21° |
| 2026-04-26 18:05 | 37.87643 | -4.50794 | 36017 ft | 429 kts | 21° |
| 2026-04-26 18:06 | 37.93139 | -4.47865 | 36012 ft | 428 kts | 21° |
| 2026-04-26 18:06 | 37.98633 | -4.44932 | 36009 ft | 428 kts | 21° |
| 2026-04-26 18:07 | 38.04126 | -4.41995 | 36015 ft | 429 kts | 21° |
| 2026-04-26 18:07 | 38.09635 | -4.39045 | 36011 ft | 430 kts | 21° |
| 2026-04-26 18:08 | 38.15147 | -4.36089 | 36023 ft | 430 kts | 21° |
| 2026-04-26 18:08 | 38.20669 | -4.33123 | 36023 ft | 432 kts | 21° |
| 2026-04-26 18:09 | 38.26209 | -4.30140 | 36024 ft | 432 kts | 21° |
| 2026-04-26 18:09 | 38.31751 | -4.27152 | 36024 ft | 433 kts | 21° |
| 2026-04-26 18:10 | 38.37298 | -4.24156 | 36026 ft | 433 kts | 21° |
| 2026-04-26 18:10 | 38.42845 | -4.21155 | 36034 ft | 433 kts | 21° |
| 2026-04-26 18:11 | 38.48398 | -4.18146 | 36029 ft | 434 kts | 21° |
| 2026-04-26 18:11 | 38.53952 | -4.15131 | 36031 ft | 433 kts | 21° |
| 2026-04-26 18:12 | 38.59500 | -4.12114 | 36033 ft | 433 kts | 21° |
| 2026-04-26 18:12 | 38.65036 | -4.09098 | 36039 ft | 433 kts | 21° |
| 2026-04-26 18:13 | 38.70573 | -4.06077 | 36036 ft | 432 kts | 21° |
| 2026-04-26 18:13 | 38.76100 | -4.03058 | 36036 ft | 432 kts | 21° |
| 2026-04-26 18:14 | 38.81621 | -4.00038 | 36039 ft | 431 kts | 21° |
| 2026-04-26 18:14 | 38.87138 | -3.97016 | 36041 ft | 431 kts | 21° |
| 2026-04-26 18:15 | 38.92650 | -3.93989 | 36043 ft | 431 kts | 21° |
| 2026-04-26 18:15 | 38.98162 | -3.90958 | 36045 ft | 431 kts | 21° |
| 2026-04-26 18:16 | 39.03667 | -3.87927 | 36048 ft | 430 kts | 21° |
| 2026-04-26 18:16 | 39.11891 | -3.83388 | 36047 ft | 431 kts | 22° |
| 2026-04-26 18:17 | 39.17395 | -3.80343 | 36054 ft | 431 kts | 22° |
| 2026-04-26 18:17 | 39.22906 | -3.77288 | 36058 ft | 431 kts | 22° |
| 2026-04-26 18:18 | 39.28420 | -3.74227 | 36059 ft | 432 kts | 22° |
| 2026-04-26 18:18 | 39.33937 | -3.71159 | 36068 ft | 432 kts | 22° |
| 2026-04-26 18:19 | 39.39458 | -3.68084 | 36059 ft | 433 kts | 21° |
| 2026-04-26 18:19 | 39.44987 | -3.64997 | 36067 ft | 433 kts | 22° |
| 2026-04-26 18:20 | 39.50513 | -3.61908 | 36066 ft | 433 kts | 21° |
| 2026-04-26 18:20 | 39.55105 | -3.59336 | 36071 ft | 433 kts | 22° |
| 2026-04-26 18:21 | 39.61563 | -3.55713 | 36069 ft | 433 kts | 22° |
| 2026-04-26 18:21 | 39.67083 | -3.52607 | 36070 ft | 432 kts | 22° |
| 2026-04-26 18:22 | 39.72599 | -3.49497 | 36069 ft | 432 kts | 22° |
| 2026-04-26 18:22 | 39.78104 | -3.46346 | 36068 ft | 432 kts | 25° |
| 2026-04-26 18:23 | 39.83208 | -3.42199 | 36074 ft | 433 kts | 32° |
| 2026-04-26 18:23 | 39.88202 | -3.37795 | 36073 ft | 434 kts | 32° |
| 2026-04-26 18:24 | 39.93211 | -3.33424 | 36076 ft | 434 kts | 32° |
| 2026-04-26 18:24 | 39.98242 | -3.29078 | 36078 ft | 434 kts | 32° |
| 2026-04-26 18:25 | 40.03283 | -3.24730 | 36077 ft | 434 kts | 32° |
| 2026-04-26 18:25 | 40.08325 | -3.20374 | 36077 ft | 435 kts | 32° |
| 2026-04-26 18:26 | 40.13335 | -3.16035 | 36080 ft | 435 kts | 32° |
| 2026-04-26 18:26 | 40.18381 | -3.11655 | 36080 ft | 435 kts | 32° |
| 2026-04-26 18:27 | 40.23424 | -3.07272 | 36079 ft | 435 kts | 32° |
| 2026-04-26 18:27 | 40.28472 | -3.02877 | 36079 ft | 435 kts | 32° |
| 2026-04-26 18:28 | 40.33514 | -2.98478 | 36075 ft | 435 kts | 32° |
| 2026-04-26 18:28 | 40.38553 | -2.94072 | 36076 ft | 435 kts | 32° |
| 2026-04-26 18:29 | 40.43587 | -2.89662 | 36079 ft | 435 kts | 32° |
| 2026-04-26 18:29 | 40.48622 | -2.85244 | 36091 ft | 435 kts | 32° |
| 2026-04-26 18:30 | 40.53652 | -2.80821 | 36090 ft | 435 kts | 32° |
| 2026-04-26 18:30 | 40.58676 | -2.76396 | 36088 ft | 434 kts | 32° |
| 2026-04-26 18:31 | 40.63695 | -2.71967 | 36086 ft | 434 kts | 33° |
| 2026-04-26 18:31 | 40.68706 | -2.67537 | 36092 ft | 434 kts | 33° |
| 2026-04-26 18:32 | 40.73713 | -2.63102 | 36087 ft | 434 kts | 33° |
| 2026-04-26 18:32 | 40.78716 | -2.58662 | 36103 ft | 433 kts | 33° |
| 2026-04-26 18:33 | 40.83683 | -2.54246 | 36094 ft | 433 kts | 33° |
| 2026-04-26 18:33 | 40.88678 | -2.49797 | 36114 ft | 433 kts | 33° |
| 2026-04-26 18:34 | 40.93670 | -2.45342 | 36101 ft | 433 kts | 33° |
| 2026-04-26 18:34 | 40.98658 | -2.40883 | 36107 ft | 433 kts | 33° |
| 2026-04-26 18:35 | 41.03607 | -2.36355 | 36113 ft | 433 kts | 36° |
| 2026-04-26 18:35 | 41.08327 | -2.31411 | 36111 ft | 432 kts | 38° |
| 2026-04-26 18:36 | 41.12982 | -2.26367 | 36112 ft | 432 kts | 38° |
| 2026-04-26 18:36 | 41.17656 | -2.21338 | 36113 ft | 432 kts | 38° |
| 2026-04-26 18:37 | 41.22342 | -2.16328 | 36113 ft | 432 kts | 38° |
| 2026-04-26 18:37 | 41.27032 | -2.11321 | 36113 ft | 432 kts | 38° |
| 2026-04-26 18:38 | 41.31719 | -2.06308 | 36106 ft | 432 kts | 37° |
| 2026-04-26 18:38 | 41.36402 | -2.01291 | 36107 ft | 432 kts | 37° |
| 2026-04-26 18:39 | 41.41083 | -1.96266 | 36096 ft | 432 kts | 38° |
| 2026-04-26 18:39 | 41.45756 | -1.91238 | 36111 ft | 432 kts | 38° |
| 2026-04-26 18:40 | 41.50426 | -1.86204 | 36108 ft | 432 kts | 38° |
| 2026-04-26 18:40 | 41.55059 | -1.81201 | 36096 ft | 431 kts | 38° |
| 2026-04-26 18:41 | 41.59719 | -1.76159 | 36095 ft | 431 kts | 38° |
| 2026-04-26 18:41 | 41.64377 | -1.71108 | 36115 ft | 431 kts | 38° |
| 2026-04-26 18:42 | 41.69027 | -1.66058 | 36078 ft | 431 kts | 38° |
| 2026-04-26 18:42 | 41.73677 | -1.60998 | 36087 ft | 431 kts | 38° |
| 2026-04-26 18:43 | 41.78324 | -1.55931 | 36082 ft | 431 kts | 38° |
| 2026-04-26 18:43 | 41.82967 | -1.50858 | 36082 ft | 431 kts | 38° |
| 2026-04-26 18:44 | 41.86823 | -1.46638 | 36065 ft | 430 kts | 38° |
| 2026-04-26 18:44 | 41.92211 | -1.40730 | 36069 ft | 430 kts | 38° |
| 2026-04-26 18:45 | 41.96088 | -1.36470 | 36069 ft | 430 kts | 38° |
| 2026-04-26 18:45 | 42.00712 | -1.31380 | 36058 ft | 430 kts | 38° |
| 2026-04-26 18:46 | 42.05333 | -1.26284 | 36068 ft | 429 kts | 38° |
| 2026-04-26 18:46 | 42.09949 | -1.21185 | 36069 ft | 429 kts | 39° |
| 2026-04-26 18:47 | 42.14535 | -1.16110 | 36063 ft | 429 kts | 39° |
| 2026-04-26 18:47 | 42.19147 | -1.10997 | 36064 ft | 430 kts | 38° |
| 2026-04-26 18:48 | 42.23763 | -1.05868 | 36083 ft | 430 kts | 39° |
| 2026-04-26 18:48 | 42.28376 | -1.00731 | 36083 ft | 431 kts | 39° |
| 2026-04-26 18:49 | 42.32997 | -0.95576 | 36090 ft | 431 kts | 39° |
| 2026-04-26 18:49 | 42.37622 | -0.90406 | 36103 ft | 432 kts | 39° |
| 2026-04-26 18:50 | 42.42239 | -0.85207 | 36105 ft | 432 kts | 41° |
| 2026-04-26 18:50 | 42.46159 | -0.79042 | 36116 ft | 433 kts | 52° |
| 2026-04-26 18:51 | 42.49791 | -0.72513 | 36130 ft | 434 kts | 52° |
| 2026-04-26 18:51 | 42.53435 | -0.66001 | 36135 ft | 434 kts | 51° |
| 2026-04-26 18:52 | 42.57109 | -0.59493 | 36146 ft | 434 kts | 51° |
| 2026-04-26 18:52 | 42.60783 | -0.52993 | 36151 ft | 434 kts | 51° |
| 2026-04-26 18:53 | 42.64450 | -0.46493 | 36162 ft | 434 kts | 51° |
| 2026-04-26 18:53 | 42.68115 | -0.39980 | 36170 ft | 433 kts | 52° |
| 2026-04-26 18:54 | 42.71767 | -0.33475 | 36175 ft | 433 kts | 52° |
| 2026-04-26 18:54 | 42.75415 | -0.26962 | 36177 ft | 432 kts | 51° |
| 2026-04-26 18:55 | 42.79054 | -0.20454 | 36183 ft | 432 kts | 52° |
| 2026-04-26 18:55 | 42.82776 | -0.14032 | 36184 ft | 432 kts | 49° |
| 2026-04-26 18:56 | 42.86610 | -0.07733 | 36180 ft | 432 kts | 49° |
| 2026-04-26 18:56 | 42.90410 | -0.01473 | 36183 ft | 431 kts | 49° |
| 2026-04-26 18:57 | 42.93601 | 0.03828 | 36189 ft | 432 kts | 50° |
| 2026-04-26 18:57 | 42.98014 | 0.11204 | 36179 ft | 432 kts | 50° |
| 2026-04-26 18:58 | 43.01807 | 0.17565 | 36194 ft | 432 kts | 50° |
| 2026-04-26 18:58 | 43.05599 | 0.23938 | 36181 ft | 432 kts | 50° |
| 2026-04-26 18:59 | 43.09382 | 0.30308 | 36182 ft | 432 kts | 50° |
| 2026-04-26 18:59 | 43.13164 | 0.36691 | 36172 ft | 431 kts | 50° |
| 2026-04-26 19:00 | 43.16935 | 0.43069 | 36178 ft | 431 kts | 50° |
| 2026-04-26 19:00 | 43.20704 | 0.49457 | 36168 ft | 431 kts | 50° |
| 2026-04-26 19:01 | 43.24465 | 0.55846 | 36169 ft | 431 kts | 50° |
| 2026-04-26 19:01 | 43.28240 | 0.62270 | 36201 ft | 436 kts | 50° |
| 2026-04-26 19:02 | 43.30150 | 0.65526 | 36345 ft | 439 kts | 50° |
| 2026-04-26 19:02 | 43.32060 | 0.68788 | 36605 ft | 438 kts | 50° |
| 2026-04-26 19:02 | 43.33965 | 0.72043 | 36928 ft | 436 kts | 50° |
| 2026-04-26 19:02 | 43.35220 | 0.74191 | 37125 ft | 435 kts | 50° |
| 2026-04-26 19:03 | 43.37753 | 0.78530 | 37439 ft | 435 kts | 50° |
| 2026-04-26 19:03 | 43.39645 | 0.81774 | 37691 ft | 434 kts | 50° |
| 2026-04-26 19:03 | 43.41532 | 0.85013 | 37937 ft | 434 kts | 50° |
| 2026-04-26 19:03 | 43.43417 | 0.88252 | 38137 ft | 434 kts | 50° |
| 2026-04-26 19:04 | 43.47217 | 0.94792 | 38155 ft | 439 kts | 50° |
| 2026-04-26 19:04 | 43.50995 | 1.01310 | 38140 ft | 436 kts | 50° |
| 2026-04-26 19:05 | 43.56637 | 1.11074 | 38138 ft | 432 kts | 50° |
| 2026-04-26 19:06 | 43.60371 | 1.17552 | 38142 ft | 430 kts | 50° |
| 2026-04-26 19:06 | 43.64088 | 1.24015 | 38127 ft | 430 kts | 50° |
| 2026-04-26 19:07 | 43.67803 | 1.30486 | 38144 ft | 430 kts | 50° |
| 2026-04-26 19:07 | 43.71426 | 1.37097 | 38136 ft | 432 kts | 52° |
| 2026-04-26 19:08 | 43.74984 | 1.43829 | 38132 ft | 435 kts | 52° |
| 2026-04-26 19:08 | 43.78567 | 1.50598 | 38135 ft | 437 kts | 52° |
| 2026-04-26 19:09 | 43.82179 | 1.57400 | 38142 ft | 439 kts | 51° |
| 2026-04-26 19:09 | 43.85805 | 1.64234 | 38141 ft | 441 kts | 51° |
| 2026-04-26 19:10 | 43.89439 | 1.71102 | 38145 ft | 442 kts | 52° |
| 2026-04-26 19:10 | 43.93072 | 1.77984 | 38140 ft | 442 kts | 52° |
| 2026-04-26 19:11 | 43.96685 | 1.84886 | 38143 ft | 442 kts | 52° |
| 2026-04-26 19:11 | 44.00188 | 1.91891 | 38155 ft | 441 kts | 53° |
| 2026-04-26 19:12 | 44.03654 | 1.98911 | 38146 ft | 440 kts | 53° |
| 2026-04-26 19:12 | 44.07114 | 2.05904 | 38149 ft | 438 kts | 53° |
| 2026-04-26 19:13 | 44.10568 | 2.12878 | 38144 ft | 437 kts | 53° |
| 2026-04-26 19:13 | 44.13986 | 2.19791 | 38156 ft | 436 kts | 53° |
| 2026-04-26 19:14 | 44.17415 | 2.26741 | 38150 ft | 435 kts | 53° |
| 2026-04-26 19:14 | 44.20833 | 2.33685 | 38167 ft | 435 kts | 53° |
| 2026-04-26 19:15 | 44.24247 | 2.40638 | 38159 ft | 434 kts | 53° |
| 2026-04-26 19:15 | 44.27654 | 2.47595 | 38162 ft | 434 kts | 53° |
| 2026-04-26 19:16 | 44.31055 | 2.54556 | 38165 ft | 434 kts | 53° |
| 2026-04-26 19:16 | 44.34458 | 2.61536 | 38159 ft | 435 kts | 53° |
| 2026-04-26 19:17 | 44.37859 | 2.68532 | 38170 ft | 436 kts | 53° |
| 2026-04-26 19:17 | 44.41266 | 2.75555 | 38166 ft | 437 kts | 53° |
| 2026-04-26 19:18 | 44.44673 | 2.82597 | 38166 ft | 437 kts | 53° |
| 2026-04-26 19:18 | 44.48083 | 2.89660 | 38164 ft | 438 kts | 53° |
| 2026-04-26 19:19 | 44.51490 | 2.96737 | 38160 ft | 438 kts | 53° |
| 2026-04-26 19:19 | 44.54891 | 3.03819 | 38170 ft | 438 kts | 53° |
| 2026-04-26 19:20 | 44.58288 | 3.10908 | 38175 ft | 438 kts | 53° |
| 2026-04-26 19:20 | 44.61635 | 3.18041 | 38160 ft | 438 kts | 56° |
| 2026-04-26 19:21 | 44.64645 | 3.25482 | 38161 ft | 438 kts | 58° |
| 2026-04-26 19:21 | 44.67580 | 3.32979 | 38163 ft | 437 kts | 58° |
| 2026-04-26 19:22 | 44.70519 | 3.40384 | 38163 ft | 436 kts | 58° |
| 2026-04-26 19:22 | 44.73485 | 3.47819 | 38174 ft | 436 kts | 58° |
| 2026-04-26 19:23 | 44.76446 | 3.55255 | 38164 ft | 435 kts | 58° |
| 2026-04-26 19:23 | 44.79398 | 3.62696 | 38166 ft | 435 kts | 58° |
| 2026-04-26 19:24 | 44.82344 | 3.70142 | 38163 ft | 435 kts | 58° |
| 2026-04-26 19:24 | 44.86753 | 3.81321 | 38180 ft | 435 kts | 58° |
| 2026-04-26 19:25 | 44.88719 | 3.86321 | 38171 ft | 436 kts | 58° |
| 2026-04-26 19:25 | 44.92626 | 3.96282 | 38176 ft | 436 kts | 58° |
| 2026-04-26 19:26 | 44.95557 | 4.03779 | 38162 ft | 437 kts | 58° |
| 2026-04-26 19:26 | 44.98487 | 4.11297 | 38163 ft | 437 kts | 58° |
| 2026-04-26 19:27 | 45.01415 | 4.18825 | 38177 ft | 437 kts | 58° |
| 2026-04-26 19:27 | 45.04336 | 4.26357 | 38168 ft | 437 kts | 58° |
| 2026-04-26 19:28 | 45.07254 | 4.33901 | 38155 ft | 437 kts | 59° |
| 2026-04-26 19:28 | 45.10166 | 4.41454 | 38163 ft | 437 kts | 59° |
| 2026-04-26 19:29 | 45.13071 | 4.49006 | 38154 ft | 437 kts | 59° |
| 2026-04-26 19:29 | 45.15948 | 4.56507 | 38152 ft | 436 kts | 59° |
| 2026-04-26 19:30 | 45.18838 | 4.64060 | 38153 ft | 435 kts | 59° |
| 2026-04-26 19:30 | 45.20765 | 4.69109 | 38157 ft | 435 kts | 59° |
| 2026-04-26 19:31 | 45.24590 | 4.79159 | 38148 ft | 435 kts | 59° |
| 2026-04-26 19:31 | 45.28045 | 4.86112 | 38152 ft | 430 kts | 46° |
| 2026-04-26 19:32 | 45.32122 | 4.92311 | 38149 ft | 429 kts | 44° |
| 2026-04-26 19:32 | 45.36220 | 4.98475 | 38149 ft | 429 kts | 44° |
| 2026-04-26 19:33 | 45.39581 | 5.03669 | 38151 ft | 429 kts | 45° |
| 2026-04-26 19:33 | 45.43595 | 5.09960 | 38156 ft | 430 kts | 45° |
| 2026-04-26 19:34 | 45.47608 | 5.16277 | 38167 ft | 430 kts | 45° |
| 2026-04-26 19:34 | 45.51621 | 5.22605 | 38154 ft | 430 kts | 45° |
| 2026-04-26 19:35 | 45.55635 | 5.28946 | 38158 ft | 431 kts | 45° |
| 2026-04-26 19:35 | 45.59640 | 5.35304 | 38150 ft | 431 kts | 45° |
| 2026-04-26 19:36 | 45.62950 | 5.40624 | 38141 ft | 431 kts | 46° |
| 2026-04-26 19:36 | 45.67597 | 5.48119 | 38137 ft | 431 kts | 46° |
| 2026-04-26 19:37 | 45.71569 | 5.54534 | 38138 ft | 431 kts | 46° |
| 2026-04-26 19:37 | 45.75541 | 5.60960 | 38131 ft | 431 kts | 46° |
| 2026-04-26 19:38 | 45.79509 | 5.67394 | 38135 ft | 431 kts | 46° |
| 2026-04-26 19:38 | 45.83469 | 5.73830 | 38143 ft | 431 kts | 46° |
| 2026-04-26 19:39 | 45.87432 | 5.80289 | 38155 ft | 430 kts | 46° |
| 2026-04-26 19:39 | 45.91383 | 5.86741 | 38153 ft | 430 kts | 46° |
| 2026-04-26 19:40 | 45.95336 | 5.93210 | 38154 ft | 431 kts | 46° |
| 2026-04-26 19:40 | 45.99285 | 5.99689 | 38169 ft | 431 kts | 46° |
| 2026-04-26 19:41 | 46.03209 | 6.06143 | 38162 ft | 432 kts | 46° |
| 2026-04-26 19:41 | 46.06522 | 6.11605 | 38149 ft | 433 kts | 46° |
| 2026-04-26 19:42 | 46.11117 | 6.19196 | 38161 ft | 433 kts | 46° |
| 2026-04-26 19:42 | 46.15074 | 6.25747 | 38149 ft | 433 kts | 46° |
| 2026-04-26 19:43 | 46.19025 | 6.32307 | 38150 ft | 433 kts | 46° |
| 2026-04-26 19:43 | 46.22971 | 6.38875 | 38146 ft | 433 kts | 46° |
| 2026-04-26 19:44 | 46.26914 | 6.45452 | 38153 ft | 433 kts | 46° |
| 2026-04-26 19:44 | 46.30858 | 6.52047 | 38161 ft | 433 kts | 46° |
| 2026-04-26 19:45 | 46.34798 | 6.58652 | 38148 ft | 434 kts | 46° |
| 2026-04-26 19:45 | 46.38733 | 6.65264 | 38169 ft | 433 kts | 46° |
| 2026-04-26 19:46 | 46.42661 | 6.71882 | 38153 ft | 433 kts | 46° |
| 2026-04-26 19:46 | 46.46558 | 6.78461 | 38166 ft | 432 kts | 46° |
| 2026-04-26 19:47 | 46.49805 | 6.83957 | 38166 ft | 431 kts | 46° |
| 2026-04-26 19:47 | 46.54365 | 6.91692 | 38172 ft | 432 kts | 46° |
| 2026-04-26 19:48 | 46.58269 | 6.98331 | 38177 ft | 432 kts | 46° |
| 2026-04-26 19:48 | 46.62165 | 7.04976 | 38183 ft | 432 kts | 46° |
| 2026-04-26 19:49 | 46.66063 | 7.11635 | 38184 ft | 432 kts | 46° |
| 2026-04-26 19:49 | 46.69960 | 7.18311 | 38185 ft | 433 kts | 46° |
| 2026-04-26 19:50 | 46.73840 | 7.24975 | 38180 ft | 435 kts | 46° |
| 2026-04-26 19:50 | 46.77745 | 7.31699 | 38183 ft | 435 kts | 46° |
| 2026-04-26 19:51 | 46.81653 | 7.38442 | 38183 ft | 435 kts | 46° |
| 2026-04-26 19:51 | 46.85558 | 7.45198 | 38182 ft | 434 kts | 47° |
| 2026-04-26 19:52 | 46.87471 | 7.48517 | 38145 ft | 420 kts | 46° |
| 2026-04-26 19:52 | 46.89345 | 7.51772 | 37549 ft | 421 kts | 46° |
| 2026-04-26 19:52 | 46.91247 | 7.55073 | 36775 ft | 426 kts | 47° |
| 2026-04-26 19:52 | 46.93155 | 7.58389 | 36295 ft | 425 kts | 46° |
| 2026-04-26 19:53 | 46.95043 | 7.61677 | 35980 ft | 419 kts | 46° |
| 2026-04-26 19:53 | 46.96903 | 7.64924 | 35668 ft | 414 kts | 46° |
| 2026-04-26 19:53 | 46.98745 | 7.68142 | 35299 ft | 411 kts | 46° |
| 2026-04-26 19:53 | 47.00576 | 7.71341 | 34917 ft | 408 kts | 46° |
| 2026-04-26 19:54 | 47.02455 | 7.74384 | 34522 ft | 402 kts | 37° |
| 2026-04-26 19:54 | 47.04747 | 7.76668 | 34129 ft | 393 kts | 22° |
| 2026-04-26 19:54 | 47.07268 | 7.78087 | 33760 ft | 385 kts | 12° |
| 2026-04-26 19:54 | 47.09877 | 7.78892 | 33352 ft | 381 kts | 8° |
| 2026-04-26 19:55 | 47.12478 | 7.79642 | 32917 ft | 380 kts | 8° |
| 2026-04-26 19:55 | 47.15059 | 7.80395 | 32573 ft | 376 kts | 8° |
| 2026-04-26 19:55 | 47.17613 | 7.81150 | 32209 ft | 374 kts | 9° |
| 2026-04-26 19:55 | 47.20157 | 7.81911 | 31809 ft | 372 kts | 9° |
| 2026-04-26 19:56 | 47.22686 | 7.82674 | 31418 ft | 370 kts | 9° |
| 2026-04-26 19:56 | 47.25205 | 7.83438 | 31043 ft | 369 kts | 9° |
| 2026-04-26 19:56 | 47.27712 | 7.84201 | 30552 ft | 370 kts | 9° |
| 2026-04-26 19:56 | 47.30269 | 7.84978 | 29659 ft | 380 kts | 9° |
| 2026-04-26 19:57 | 47.32872 | 7.85772 | 29009 ft | 383 kts | 9° |
| 2026-04-26 19:57 | 47.35468 | 7.86566 | 28575 ft | 379 kts | 9° |
| 2026-04-26 19:57 | 47.38035 | 7.87355 | 28193 ft | 375 kts | 9° |
| 2026-04-26 19:57 | 47.40579 | 7.88136 | 27733 ft | 373 kts | 9° |
| 2026-04-26 19:58 | 47.43114 | 7.88915 | 27275 ft | 371 kts | 9° |
| 2026-04-26 19:58 | 47.45635 | 7.89689 | 26837 ft | 369 kts | 9° |
| 2026-04-26 19:58 | 47.48149 | 7.90462 | 26412 ft | 367 kts | 9° |
| 2026-04-26 19:58 | 47.50646 | 7.91230 | 25989 ft | 365 kts | 9° |
| 2026-04-26 19:59 | 47.53127 | 7.91995 | 25584 ft | 364 kts | 8° |
| 2026-04-26 19:59 | 47.55592 | 7.92755 | 25264 ft | 359 kts | 8° |
| 2026-04-26 19:59 | 47.58028 | 7.93507 | 24892 ft | 357 kts | 8° |
| 2026-04-26 19:59 | 47.60456 | 7.94257 | 24479 ft | 356 kts | 8° |
| 2026-04-26 20:00 | 47.62880 | 7.95006 | 24066 ft | 355 kts | 8° |
| 2026-04-26 20:00 | 47.65300 | 7.95754 | 23649 ft | 354 kts | 8° |
| 2026-04-26 20:00 | 47.67673 | 7.96490 | 23253 ft | 352 kts | 8° |
| 2026-04-26 20:00 | 47.70056 | 7.97229 | 22863 ft | 349 kts | 8° |
| 2026-04-26 20:01 | 47.72457 | 7.97972 | 22111 ft | 356 kts | 9° |
| 2026-04-26 20:01 | 47.74880 | 7.98724 | 21528 ft | 354 kts | 9° |
| 2026-04-26 20:01 | 47.77276 | 7.99471 | 20890 ft | 350 kts | 9° |
| 2026-04-26 20:01 | 47.79654 | 8.00214 | 20190 ft | 349 kts | 9° |
| 2026-04-26 20:02 | 47.82016 | 8.00991 | 19517 ft | 346 kts | 10° |
| 2026-04-26 20:02 | 47.84350 | 8.01778 | 18889 ft | 343 kts | 11° |
| 2026-04-26 20:02 | 47.86670 | 8.02567 | 18212 ft | 341 kts | 11° |
| 2026-04-26 20:02 | 47.88200 | 8.03086 | 17717 ft | 339 kts | 11° |
| 2026-04-26 20:03 | 47.91264 | 8.04125 | 16787 ft | 336 kts | 11° |
| 2026-04-26 20:03 | 47.93560 | 8.04650 | 16089 ft | 332 kts | 359° |
| 2026-04-26 20:03 | 47.95850 | 8.04425 | 15473 ft | 328 kts | 352° |
| 2026-04-26 20:03 | 47.98103 | 8.04014 | 14870 ft | 325 kts | 351° |
| 2026-04-26 20:04 | 48.00338 | 8.03590 | 14234 ft | 323 kts | 351° |
| 2026-04-26 20:04 | 48.02567 | 8.03167 | 13572 ft | 322 kts | 351° |
| 2026-04-26 20:04 | 48.04778 | 8.02753 | 12957 ft | 318 kts | 351° |
| 2026-04-26 20:04 | 48.06962 | 8.02350 | 12354 ft | 314 kts | 351° |
| 2026-04-26 20:05 | 48.09118 | 8.01954 | 11745 ft | 312 kts | 351° |
| 2026-04-26 20:05 | 48.11260 | 8.01564 | 11151 ft | 309 kts | 352° |
| 2026-04-26 20:05 | 48.13384 | 8.01179 | 10612 ft | 305 kts | 352° |
| 2026-04-26 20:05 | 48.15487 | 8.00798 | 10046 ft | 302 kts | 352° |
| 2026-04-26 20:06 | 48.17531 | 8.00428 | 9861 ft | 286 kts | 352° |
| 2026-04-26 20:06 | 48.19483 | 8.00076 | 9444 ft | 280 kts | 352° |
| 2026-04-26 20:06 | 48.21385 | 7.99732 | 9142 ft | 272 kts | 352° |
| 2026-04-26 20:06 | 48.23261 | 7.99392 | 8853 ft | 271 kts | 352° |
| 2026-04-26 20:07 | 48.25136 | 7.99052 | 8573 ft | 273 kts | 353° |
| 2026-04-26 20:07 | 48.27032 | 7.98708 | 8283 ft | 276 kts | 353° |
| 2026-04-26 20:07 | 48.28950 | 7.98359 | 7972 ft | 277 kts | 353° |
| 2026-04-26 20:07 | 48.30857 | 7.98013 | 7674 ft | 276 kts | 353° |
| 2026-04-26 20:08 | 48.32753 | 7.97669 | 7386 ft | 274 kts | 353° |
| 2026-04-26 20:08 | 48.34642 | 7.97325 | 7101 ft | 275 kts | 353° |
| 2026-04-26 20:08 | 48.36567 | 7.96975 | 6813 ft | 282 kts | 353° |
| 2026-04-26 20:08 | 48.38515 | 7.96621 | 6505 ft | 281 kts | 353° |
| 2026-04-26 20:09 | 48.40435 | 7.96271 | 6344 ft | 273 kts | 353° |
| 2026-04-26 20:09 | 48.42297 | 7.95932 | 6214 ft | 266 kts | 353° |
| 2026-04-26 20:09 | 48.44116 | 7.95600 | 6095 ft | 263 kts | 353° |
| 2026-04-26 20:09 | 48.45936 | 7.95268 | 5984 ft | 264 kts | 353° |
| 2026-04-26 20:10 | 48.47762 | 7.94934 | 5886 ft | 264 kts | 353° |
| 2026-04-26 20:10 | 48.49606 | 7.94597 | 5656 ft | 270 kts | 353° |
| 2026-04-26 20:10 | 48.51452 | 7.94259 | 5405 ft | 272 kts | 353° |
| 2026-04-26 20:10 | 48.53359 | 7.93910 | 5022 ft | 271 kts | 354° |
| 2026-04-26 20:11 | 48.55211 | 7.93570 | 4629 ft | 265 kts | 354° |
| 2026-04-26 20:11 | 48.56992 | 7.93242 | 4322 ft | 258 kts | 355° |
| 2026-04-26 20:11 | 48.58760 | 7.92917 | 4117 ft | 253 kts | 355° |
| 2026-04-26 20:12 | 48.62002 | 7.93165 | 3851 ft | 222 kts | 31° |
| 2026-04-26 20:12 | 48.63304 | 7.94329 | 3578 ft | 214 kts | 33° |
| 2026-04-26 20:12 | 48.64562 | 7.95464 | 3296 ft | 208 kts | 34° |
| 2026-04-26 20:12 | 48.65774 | 7.96597 | 3011 ft | 202 kts | 34° |
| 2026-04-26 20:13 | 48.66946 | 7.97700 | 2763 ft | 195 kts | 34° |
| 2026-04-26 20:13 | 48.68081 | 7.98775 | 2472 ft | 190 kts | 33° |
| 2026-04-26 20:13 | 48.69190 | 7.99832 | 2207 ft | 186 kts | 32° |
| 2026-04-26 20:13 | 48.70272 | 8.00869 | 1919 ft | 182 kts | 31° |
| 2026-04-26 20:14 | 48.71311 | 8.01850 | 1708 ft | 167 kts | 30° |
| 2026-04-26 20:14 | 48.72226 | 8.02698 | 1571 ft | 149 kts | 30° |
| 2026-04-26 20:14 | 48.73097 | 8.03510 | 1364 ft | 144 kts | 31° |
| 2026-04-26 20:14 | 48.73944 | 8.04298 | 1166 ft | 142 kts | 33° |
| 2026-04-26 20:15 | 48.74777 | 8.05088 | 950 ft | 141 kts | 32° |
| 2026-04-26 20:15 | 48.75598 | 8.05874 | 755 ft | 137 kts | 32° |
| 2026-04-26 20:15 | 48.76403 | 8.06616 | 585 ft | 135 kts | 33° |
| 2026-04-26 20:15 | 48.77189 | 8.07354 | 411 ft | 130 kts | 32° |
| 2026-04-26 20:16 | 48.77820 | 8.07943 | 411 ft | 77 kts | 32° |
| 2026-04-26 20:16 | 48.78146 | 8.08249 | 412 ft | 47 kts | 32° |
| 2026-04-26 20:16 | 48.78335 | 8.08425 | 406 ft | 18 kts | 32° |
| 2026-04-26 20:16 | 48.78355 | 8.08539 | 407 ft | 13 kts | 118° |
| 2026-04-26 20:17 | 48.78314 | 8.08641 | 409 ft | 8 kts | 122° |
| 2026-04-26 20:17 | 48.78285 | 8.08709 | 411 ft | 8 kts | 123° |
| 2026-04-26 20:17 | 48.78257 | 8.08777 | 408 ft | 8 kts | 122° |
| 2026-04-26 20:17 | 48.78231 | 8.08831 | 411 ft | 11 kts | 142° |
| 2026-04-26 20:18 | 48.78141 | 8.08785 | 409 ft | 11 kts | 212° |
| 2026-04-26 20:18 | 48.78075 | 8.08735 | 411 ft | 10 kts | 197° |
| 2026-04-26 20:18 | 48.78012 | 8.08682 | 409 ft | 10 kts | 212° |
| 2026-04-26 20:18 | 48.77963 | 8.08638 | 411 ft | 5 kts | 201° |
| 2026-04-26 20:19 | 48.77937 | 8.08658 | 411 ft | 4 kts | 129° |
| 2026-04-26 20:19 | 48.77924 | 8.08678 | 411 ft | 2 kts | 151° |
| 2026-04-26 20:19 | 48.77916 | 8.08685 | 411 ft | 0 kts | 155° |